createdAt,value
2018-03-18T00:01:48.171Z,64.78
2018-03-18T00:04:16.472Z,64.93
2018-03-18T00:06:44.897Z,66.31
2018-03-18T00:09:13.235Z,66.85
2018-03-18T00:11:42.091Z,67.13
2018-03-18T00:14:10.424Z,68.38
2018-03-18T00:16:38.699Z,68.57
2018-03-18T00:19:07.020Z,70.27
2018-03-18T00:21:35.306Z,70.81
2018-03-18T00:24:03.589Z,71.01
2018-03-18T00:26:31.909Z,71.47
2018-03-18T00:29:00.182Z,71.66
2018-03-18T00:31:28.519Z,71.91
2018-03-18T00:33:56.776Z,72.19
2018-03-18T00:36:25.064Z,71.84
2018-03-18T00:38:53.340Z,72.05
2018-03-18T00:41:21.677Z,72.54
2018-03-18T00:43:49.980Z,71.22
2018-03-18T00:46:18.259Z,71.65
2018-03-18T00:48:46.564Z,70.55
2018-03-18T00:51:26.512Z,70.57
2018-03-18T00:53:54.793Z,70.21
2018-03-18T00:56:23.086Z,70.20
2018-03-18T00:58:51.389Z,70.61
2018-03-18T01:01:19.683Z,70.06
2018-03-18T01:03:47.979Z,69.81
2018-03-18T01:06:16.298Z,70.19
2018-03-18T01:08:44.698Z,70.50
2018-03-18T01:11:12.983Z,70.23
2018-03-18T01:13:41.285Z,70.54
2018-03-18T01:16:09.576Z,69.64
2018-03-18T01:18:37.842Z,70.62
2018-03-18T01:21:06.151Z,69.59
2018-03-18T01:23:34.463Z,71.00
2018-03-18T01:26:02.756Z,70.50
2018-03-18T01:28:31.047Z,69.86
2018-03-18T01:30:59.352Z,70.15
2018-03-18T01:33:27.625Z,70.63
2018-03-18T01:35:55.992Z,71.66
2018-03-18T01:38:24.269Z,71.81
2018-03-18T01:40:52.575Z,71.67
2018-03-18T01:43:20.882Z,71.20
2018-03-18T01:45:49.188Z,71.17
2018-03-18T01:48:17.485Z,70.77
2018-03-18T01:50:45.822Z,71.87
2018-03-18T01:53:21.783Z,71.95
2018-03-18T01:55:50.094Z,71.70
2018-03-18T01:58:18.380Z,70.73
2018-03-18T02:00:46.642Z,72.33
2018-03-18T02:03:14.934Z,71.71
2018-03-18T02:05:43.187Z,70.84
2018-03-18T02:08:11.480Z,70.76
2018-03-18T02:10:39.788Z,70.70
2018-03-18T02:13:08.068Z,70.16
2018-03-18T02:15:36.403Z,70.87
2018-03-18T02:18:05.088Z,70.14
2018-03-18T02:20:33.410Z,70.18
2018-03-18T02:23:01.739Z,70.37
2018-03-18T02:25:30.019Z,71.27
2018-03-18T02:27:58.310Z,70.64
2018-03-18T02:30:26.613Z,70.53
2018-03-18T02:32:54.883Z,70.79
2018-03-18T02:35:23.223Z,70.99
2018-03-18T02:37:51.492Z,70.82
2018-03-18T02:40:19.783Z,70.46
2018-03-18T02:42:48.053Z,69.94
2018-03-18T02:45:16.600Z,71.12
2018-03-18T02:47:44.907Z,71.89
2018-03-18T02:50:13.175Z,71.82
2018-03-18T02:52:41.508Z,72.49
2018-03-18T02:55:09.823Z,72.38
2018-03-18T02:57:38.667Z,72.05
2018-03-18T03:00:06.945Z,71.06
2018-03-18T03:02:35.219Z,71.51
2018-03-18T03:05:03.525Z,70.93
2018-03-18T03:07:31.808Z,70.39
2018-03-18T03:10:00.108Z,71.57
2018-03-18T03:12:28.389Z,71.14
2018-03-18T03:14:56.731Z,70.81
2018-03-18T03:17:25.008Z,71.56
2018-03-18T03:19:53.319Z,71.51
2018-03-18T03:22:21.630Z,72.33
2018-03-18T03:24:49.944Z,71.74
2018-03-18T03:27:18.223Z,72.39
2018-03-18T03:29:46.580Z,71.76
2018-03-18T03:32:14.883Z,71.62
2018-03-18T03:34:43.171Z,71.92
2018-03-18T03:37:11.468Z,71.02
2018-03-18T03:39:39.729Z,71.62
2018-03-18T03:42:08.046Z,72.17
2018-03-18T03:44:36.347Z,72.19
2018-03-18T03:47:06.106Z,72.25
2018-03-18T03:49:34.384Z,72.75
2018-03-18T03:52:02.708Z,72.51
2018-03-18T03:54:30.979Z,73.01
2018-03-18T03:56:59.268Z,72.51
2018-03-18T03:59:27.573Z,72.21
2018-03-18T04:01:55.865Z,71.50
2018-03-18T04:04:24.186Z,72.69
2018-03-18T04:06:52.483Z,72.81
2018-03-18T04:09:20.786Z,72.68
2018-03-18T04:11:49.066Z,73.12
2018-03-18T04:14:17.361Z,73.33
2018-03-18T04:16:45.670Z,72.52
2018-03-18T04:19:13.984Z,72.32
2018-03-18T04:21:42.268Z,72.38
2018-03-18T04:24:10.613Z,72.44
2018-03-18T04:26:38.923Z,72.01
2018-03-18T04:29:07.183Z,71.11
2018-03-18T04:31:35.603Z,70.62
2018-03-18T04:34:04.800Z,71.14
2018-03-18T04:36:33.107Z,71.53
2018-03-18T04:39:01.386Z,70.85
2018-03-18T04:41:29.699Z,71.50
2018-03-18T04:43:58.009Z,70.73
2018-03-18T04:46:26.319Z,71.68
2018-03-18T04:48:54.586Z,71.89
2018-03-18T04:51:22.852Z,72.07
2018-03-18T04:53:51.161Z,71.83
2018-03-18T04:56:19.465Z,71.95
2018-03-18T04:58:47.783Z,71.69
2018-03-18T05:01:16.049Z,71.94
2018-03-18T05:03:44.351Z,71.26
2018-03-18T05:06:12.667Z,71.79
2018-03-18T05:08:40.964Z,71.93
2018-03-18T05:11:09.235Z,71.71
2018-03-18T05:13:37.532Z,71.92
2018-03-18T05:16:05.840Z,71.42
2018-03-18T05:18:34.106Z,71.88
2018-03-18T05:21:02.426Z,72.70
2018-03-18T05:23:30.683Z,72.72
2018-03-18T05:25:59.004Z,72.54
2018-03-18T05:28:27.287Z,72.77
2018-03-18T05:30:55.596Z,72.20
2018-03-18T05:33:23.897Z,72.46
2018-03-18T05:35:52.186Z,73.23
2018-03-18T05:38:20.474Z,72.41
2018-03-18T05:40:48.768Z,72.83
2018-03-18T05:43:17.078Z,73.17
2018-03-18T05:45:46.019Z,72.71
2018-03-18T05:48:14.343Z,72.44
2018-03-18T05:50:42.615Z,72.75
2018-03-18T05:53:10.938Z,72.28
2018-03-18T05:55:39.227Z,72.05
2018-03-18T05:58:07.497Z,72.60
2018-03-18T06:00:35.805Z,72.58
2018-03-18T06:03:04.079Z,72.99
2018-03-18T06:05:32.376Z,72.34
2018-03-18T06:08:00.867Z,71.99
2018-03-18T06:10:29.178Z,71.84
2018-03-18T06:12:57.425Z,71.43
2018-03-18T06:15:25.683Z,71.88
2018-03-18T06:17:54.004Z,72.30
2018-03-18T06:20:22.816Z,71.74
2018-03-18T06:22:51.124Z,72.09
2018-03-18T06:25:19.532Z,71.64
2018-03-18T06:27:47.833Z,72.11
2018-03-18T06:30:16.077Z,72.12
2018-03-18T06:32:44.382Z,72.12
2018-03-18T06:35:12.676Z,70.94
2018-03-18T06:37:40.996Z,71.20
2018-03-18T06:40:09.288Z,71.52
2018-03-18T06:42:37.804Z,71.26
2018-03-18T06:45:06.095Z,71.01
2018-03-18T06:47:34.369Z,70.83
2018-03-18T06:50:03.782Z,72.33
2018-03-18T06:52:32.062Z,72.06
2018-03-18T06:55:00.353Z,72.12
2018-03-18T06:57:28.746Z,72.93
2018-03-18T06:59:57.042Z,72.99
2018-03-18T07:02:25.386Z,72.56
2018-03-18T07:04:53.649Z,72.01
2018-03-18T07:07:21.981Z,72.53
2018-03-18T07:09:50.271Z,71.90
2018-03-18T07:12:18.592Z,72.57
2018-03-18T07:14:47.509Z,72.39
2018-03-18T07:17:15.797Z,71.87
2018-03-18T07:19:44.059Z,71.20
2018-03-18T07:22:12.382Z,70.82
2018-03-18T07:24:40.988Z,71.10
2018-03-18T07:27:09.244Z,70.60
2018-03-18T07:29:37.567Z,72.58
2018-03-18T07:32:05.832Z,73.05
2018-03-18T07:34:34.132Z,72.51
2018-03-18T07:37:02.419Z,71.83
2018-03-18T07:39:30.693Z,72.10
2018-03-18T07:41:58.992Z,71.21
2018-03-18T07:44:27.262Z,71.20
2018-03-18T07:46:55.879Z,71.28
2018-03-18T07:49:24.156Z,70.04
2018-03-18T07:51:52.460Z,70.28
2018-03-18T07:54:20.716Z,70.28
2018-03-18T07:56:49.061Z,70.41
2018-03-18T07:59:17.327Z,69.92
2018-03-18T08:01:45.637Z,69.77
2018-03-18T08:04:13.919Z,70.11
2018-03-18T08:06:42.203Z,69.60
2018-03-18T08:09:10.463Z,69.74
2018-03-18T08:11:38.724Z,69.61
2018-03-18T08:14:07.076Z,69.30
2018-03-18T08:16:35.311Z,69.89
2018-03-18T08:19:03.588Z,69.91
2018-03-18T08:21:31.926Z,69.57
2018-03-18T08:24:00.201Z,70.17
2018-03-18T08:26:28.489Z,70.61
2018-03-18T08:28:56.765Z,69.90
2018-03-18T08:31:25.044Z,70.02
2018-03-18T08:33:53.340Z,70.00
2018-03-18T08:36:21.671Z,70.02
2018-03-18T08:38:49.956Z,69.64
2018-03-18T08:41:18.269Z,69.47
2018-03-18T08:43:46.705Z,69.07
2018-03-18T08:46:15.369Z,68.87
2018-03-18T08:48:44.309Z,68.72
2018-03-18T08:51:12.697Z,68.28
2018-03-18T08:53:40.990Z,68.19
2018-03-18T08:56:09.267Z,68.07
2018-03-18T08:58:38.367Z,68.10
2018-03-18T09:01:06.645Z,68.23
2018-03-18T09:03:34.927Z,68.44
2018-03-18T09:06:03.203Z,68.31
2018-03-18T09:08:31.499Z,69.18
2018-03-18T09:10:59.795Z,68.54
2018-03-18T09:13:28.101Z,68.14
2018-03-18T09:15:56.384Z,68.01
2018-03-18T09:18:24.689Z,68.19
2018-03-18T09:20:53.346Z,68.32
2018-03-18T09:23:21.643Z,68.54
2018-03-18T09:25:49.978Z,68.70
2018-03-18T09:28:18.776Z,68.91
2018-03-18T09:30:47.115Z,68.81
2018-03-18T09:33:15.387Z,69.29
2018-03-18T09:35:43.779Z,69.41
2018-03-18T09:38:12.034Z,69.16
2018-03-18T09:40:40.380Z,69.22
2018-03-18T09:43:08.700Z,68.77
2018-03-18T09:45:37.006Z,69.55
2018-03-18T09:48:05.384Z,69.45
2018-03-18T09:50:33.696Z,69.96
2018-03-18T09:53:02.028Z,69.55
2018-03-18T09:55:30.260Z,69.75
2018-03-18T09:57:58.579Z,69.54
2018-03-18T10:00:26.867Z,70.13
2018-03-18T10:02:55.256Z,70.31
2018-03-18T10:05:23.519Z,70.57
2018-03-18T10:07:51.853Z,70.00
2018-03-18T10:10:20.124Z,70.04
2018-03-18T10:12:48.435Z,69.89
2018-03-18T10:15:16.741Z,69.47
2018-03-18T10:17:45.008Z,69.98
2018-03-18T10:20:13.343Z,69.60
2018-03-18T10:22:41.553Z,69.56
2018-03-18T10:25:09.855Z,69.78
2018-03-18T10:27:38.115Z,69.49
2018-03-18T10:30:06.604Z,70.08
2018-03-18T10:32:34.887Z,70.24
2018-03-18T10:35:03.175Z,71.16
2018-03-18T10:37:31.506Z,71.62
2018-03-18T10:39:59.779Z,70.63
2018-03-18T10:42:28.073Z,70.01
2018-03-18T10:44:56.344Z,70.47
2018-03-18T10:47:25.550Z,70.35
2018-03-18T10:49:54.175Z,70.88
2018-03-18T10:52:22.463Z,70.19
2018-03-18T10:54:50.778Z,69.31
2018-03-18T10:57:19.980Z,69.67
2018-03-18T10:59:48.274Z,69.09
2018-03-18T11:02:17.409Z,69.81
2018-03-18T11:04:45.849Z,69.13
2018-03-18T11:07:14.145Z,69.71
2018-03-18T11:09:42.450Z,69.60
2018-03-18T11:12:10.824Z,69.71
2018-03-18T11:14:39.812Z,69.21
2018-03-18T11:17:08.120Z,68.51
2018-03-18T11:19:36.417Z,68.37
2018-03-18T11:22:05.624Z,68.50
2018-03-18T11:24:34.105Z,68.75
2018-03-18T11:27:06.403Z,68.22
2018-03-18T11:29:34.674Z,68.31
2018-03-18T11:32:02.993Z,67.67
2018-03-18T11:34:31.848Z,67.82
2018-03-18T11:37:00.606Z,68.17
2018-03-18T11:39:28.970Z,67.87
2018-03-18T11:41:57.264Z,67.38
2018-03-18T11:44:25.656Z,67.70
2018-03-18T11:46:53.964Z,67.41
2018-03-18T11:49:22.316Z,67.40
2018-03-18T11:51:50.586Z,68.22
2018-03-18T11:54:18.925Z,68.08
2018-03-18T11:56:48.064Z,68.59
2018-03-18T11:59:16.464Z,69.03
2018-03-18T12:01:44.897Z,67.82
2018-03-18T12:04:13.205Z,67.72
2018-03-18T12:06:41.504Z,68.39
2018-03-18T12:09:09.823Z,67.53
2018-03-18T12:11:38.111Z,68.47
2018-03-18T12:14:06.406Z,68.72
2018-03-18T12:16:35.951Z,68.72
2018-03-18T12:19:05.178Z,68.67
2018-03-18T12:21:33.508Z,68.70
2018-03-18T12:24:01.781Z,68.68
2018-03-18T12:26:30.068Z,68.53
2018-03-18T12:28:58.329Z,68.73
2018-03-18T12:31:26.625Z,68.28
2018-03-18T12:33:55.029Z,68.25
2018-03-18T12:36:23.351Z,68.02
2018-03-18T12:38:51.616Z,68.50
2018-03-18T12:41:19.920Z,68.11
2018-03-18T12:43:48.213Z,67.42
2018-03-18T12:46:16.467Z,67.80
2018-03-18T12:48:44.763Z,67.39
2018-03-18T12:51:13.112Z,67.30
2018-03-18T12:53:41.416Z,66.39
2018-03-18T12:56:10.528Z,66.63
2018-03-18T12:58:38.975Z,66.06
2018-03-18T13:01:07.314Z,66.59
2018-03-18T13:03:35.631Z,67.38
2018-03-18T13:06:04.838Z,67.07
2018-03-18T13:08:33.178Z,67.17
2018-03-18T13:11:01.492Z,67.01
2018-03-18T13:13:29.765Z,67.10
2018-03-18T13:15:58.084Z,66.96
2018-03-18T13:18:26.383Z,66.95
2018-03-18T13:20:54.677Z,66.64
2018-03-18T13:23:22.962Z,66.29
2018-03-18T13:25:51.241Z,65.90
2018-03-18T13:28:19.546Z,65.97
2018-03-18T13:30:47.885Z,65.38
2018-03-18T13:33:16.176Z,65.37
2018-03-18T13:35:44.655Z,65.83
2018-03-18T13:38:12.921Z,65.51
2018-03-18T13:40:41.230Z,65.23
2018-03-18T13:43:09.518Z,65.12
2018-03-18T13:45:38.792Z,64.66
2018-03-18T13:48:07.082Z,65.29
2018-03-18T13:50:35.361Z,64.40
2018-03-18T13:53:03.635Z,64.93
2018-03-18T13:55:31.934Z,65.18
2018-03-18T13:58:00.210Z,64.58
2018-03-18T14:00:28.849Z,64.10
2018-03-18T14:02:57.305Z,64.04
2018-03-18T14:05:25.777Z,64.26
2018-03-18T14:07:54.154Z,63.14
2018-03-18T14:10:22.522Z,63.63
2018-03-18T14:12:50.791Z,63.02
2018-03-18T14:15:19.097Z,64.04
2018-03-18T14:17:47.356Z,63.78
2018-03-18T14:20:15.728Z,63.63
2018-03-18T14:22:44.085Z,64.16
2018-03-18T14:27:46.788Z,63.45
2018-03-18T14:30:15.163Z,63.77
2018-03-18T14:32:43.413Z,63.43
2018-03-18T14:35:11.742Z,62.33
2018-03-18T14:37:40.119Z,62.74
2018-03-18T14:40:08.442Z,62.14
2018-03-18T14:42:36.728Z,62.38
2018-03-18T14:45:05.640Z,62.70
2018-03-18T14:47:33.911Z,62.34
2018-03-18T14:50:02.299Z,61.86
2018-03-18T14:52:30.610Z,62.05
2018-03-18T14:54:58.892Z,62.73
2018-03-18T14:57:27.216Z,62.92
2018-03-18T14:59:55.507Z,62.16
2018-03-18T15:02:23.813Z,62.37
2018-03-18T15:04:52.144Z,61.87
2018-03-18T15:07:20.441Z,61.66
2018-03-18T15:09:48.771Z,62.03
2018-03-18T15:12:17.126Z,62.17
2018-03-18T15:14:45.388Z,61.50
2018-03-18T15:17:13.801Z,61.32
2018-03-18T15:19:42.056Z,61.38
2018-03-18T15:22:10.391Z,61.64
2018-03-18T15:24:38.712Z,62.25
2018-03-18T15:27:06.988Z,62.00
2018-03-18T15:29:35.280Z,61.67
2018-03-18T15:32:04.590Z,61.11
2018-03-18T15:34:32.870Z,60.93
2018-03-18T15:37:01.481Z,61.48
2018-03-18T15:39:29.851Z,61.86
2018-03-18T15:41:58.244Z,61.44
2018-03-18T15:44:26.617Z,61.60
2018-03-18T15:46:55.178Z,61.75
2018-03-18T15:49:23.482Z,61.71
2018-03-18T15:51:51.781Z,62.06
2018-03-18T15:54:20.089Z,62.27
2018-03-18T15:56:49.235Z,62.20
2018-03-18T15:59:17.744Z,61.48
2018-03-18T16:01:46.295Z,61.42
2018-03-18T16:04:14.665Z,61.42
2018-03-18T16:06:43.322Z,61.98
2018-03-18T16:09:11.740Z,61.28
2018-03-18T16:11:40.020Z,61.98
2018-03-18T16:14:08.339Z,61.58
2018-03-18T16:16:36.634Z,61.85
2018-03-18T16:19:04.995Z,61.29
2018-03-18T16:21:33.270Z,61.46
2018-03-18T16:24:01.575Z,61.03
2018-03-18T16:26:29.960Z,61.18
2018-03-18T16:29:10.024Z,61.40
2018-03-18T16:31:38.426Z,61.55
2018-03-18T16:34:06.880Z,60.87
2018-03-18T16:36:35.129Z,61.11
2018-03-18T16:39:03.430Z,60.71
2018-03-18T16:41:31.806Z,60.60
2018-03-18T16:44:00.117Z,60.60
2018-03-18T16:46:28.419Z,59.90
2018-03-18T16:48:56.667Z,60.81
2018-03-18T16:51:25.048Z,60.61
2018-03-18T16:53:53.413Z,60.06
2018-03-18T16:56:21.704Z,60.21
2018-03-18T16:58:49.980Z,60.50
2018-03-18T17:01:18.310Z,60.30
2018-03-18T17:03:46.590Z,60.22
2018-03-18T17:06:15.793Z,59.93
2018-03-18T17:08:44.152Z,60.28
2018-03-18T17:11:12.579Z,60.04
2018-03-18T17:13:40.931Z,59.97
2018-03-18T17:16:09.203Z,59.91
2018-03-18T17:18:37.496Z,59.91
2018-03-18T17:21:05.825Z,59.52
2018-03-18T17:23:34.096Z,59.45
2018-03-18T17:26:02.399Z,60.21
2018-03-18T17:28:31.369Z,60.47
2018-03-18T17:30:59.673Z,59.98
2018-03-18T17:33:28.020Z,60.33
2018-03-18T17:35:56.283Z,59.81
2018-03-18T17:38:24.558Z,60.02
2018-03-18T17:40:52.874Z,59.93
2018-03-18T17:43:21.115Z,60.61
2018-03-18T17:46:01.229Z,60.75
2018-03-18T17:48:41.335Z,60.28
2018-03-18T17:51:21.832Z,59.90
2018-03-18T17:54:01.910Z,60.04
2018-03-18T17:56:41.959Z,60.03
2018-03-18T17:59:10.225Z,59.84
2018-03-18T18:01:38.623Z,59.85
2018-03-18T18:04:06.873Z,59.37
2018-03-18T18:06:35.204Z,59.36
2018-03-18T18:09:04.438Z,59.24
2018-03-18T18:11:32.756Z,59.56
2018-03-18T18:14:01.193Z,59.89
2018-03-18T18:16:29.426Z,59.48
2018-03-18T18:18:57.704Z,60.08
2018-03-18T18:21:26.476Z,58.98
2018-03-18T18:23:54.944Z,59.11
2018-03-18T18:26:23.250Z,59.17
2018-03-18T18:28:51.565Z,59.21
2018-03-18T18:31:19.840Z,59.41
2018-03-18T18:33:48.121Z,58.99
2018-03-18T18:36:16.435Z,58.55
2018-03-18T18:38:44.767Z,58.77
2018-03-18T18:41:13.027Z,58.72
2018-03-18T18:43:41.304Z,59.46
2018-03-18T18:46:09.609Z,59.63
2018-03-18T18:48:37.872Z,59.28
2018-03-18T18:51:06.282Z,58.83
2018-03-18T18:53:34.524Z,58.28
2018-03-18T18:56:02.813Z,58.60
2018-03-18T18:58:31.081Z,58.14
2018-03-18T19:00:59.352Z,58.41
2018-03-18T19:03:27.611Z,58.61
2018-03-18T19:05:55.888Z,58.60
2018-03-18T19:08:24.140Z,58.37
2018-03-18T19:10:52.430Z,58.28
2018-03-18T19:13:20.746Z,58.23
2018-03-18T19:15:49.032Z,58.16
2018-03-18T19:18:17.313Z,58.45
2018-03-18T19:20:45.672Z,58.72
2018-03-18T19:23:13.982Z,59.08
2018-03-18T19:25:42.273Z,58.90
2018-03-18T19:28:10.563Z,58.51
2018-03-18T19:30:38.850Z,58.23
2018-03-18T19:33:07.084Z,58.36
2018-03-18T19:35:35.395Z,58.17
2018-03-18T19:38:03.662Z,58.25
2018-03-18T19:40:31.960Z,58.80
2018-03-18T19:43:00.285Z,58.23
2018-03-18T19:45:28.598Z,58.47
2018-03-18T19:47:56.910Z,58.85
2018-03-18T19:50:25.229Z,58.12
2018-03-18T19:52:53.531Z,58.21
2018-03-18T19:55:21.828Z,57.95
2018-03-18T19:57:50.203Z,58.01
2018-03-18T20:00:18.484Z,58.63
2018-03-18T20:02:46.800Z,59.21
2018-03-18T20:05:15.094Z,59.18
2018-03-18T20:07:43.495Z,59.29
2018-03-18T20:10:11.729Z,58.70
2018-03-18T20:12:40.052Z,58.86
2018-03-18T20:15:08.320Z,58.97
2018-03-18T20:17:36.620Z,58.74
2018-03-18T20:20:04.875Z,59.08
2018-03-18T20:22:33.141Z,59.38
2018-03-18T20:25:01.747Z,59.15
2018-03-18T20:27:30.023Z,59.29
2018-03-18T20:29:58.276Z,59.29
2018-03-18T20:32:26.552Z,59.12
2018-03-18T20:34:54.845Z,59.71
2018-03-18T20:37:23.124Z,59.63
2018-03-18T20:39:51.376Z,59.36
2018-03-18T20:42:19.694Z,59.57
2018-03-18T20:44:47.986Z,59.38
2018-03-18T20:47:16.283Z,59.38
2018-03-18T20:49:44.569Z,59.64
2018-03-18T20:52:12.841Z,59.39
2018-03-18T20:54:41.135Z,59.21
2018-03-18T20:57:09.459Z,59.58
2018-03-18T20:59:37.747Z,60.04
2018-03-18T21:02:05.991Z,60.39
2018-03-18T21:04:34.259Z,60.76
2018-03-18T21:07:02.503Z,60.74
2018-03-18T21:09:30.825Z,60.19
2018-03-18T21:11:59.099Z,60.17
2018-03-18T21:14:27.379Z,60.55
2018-03-18T21:16:55.691Z,60.45
2018-03-18T21:19:23.962Z,60.79
2018-03-18T21:21:52.224Z,60.55
2018-03-18T21:24:20.614Z,60.49
2018-03-18T21:26:48.866Z,61.36
2018-03-18T21:29:17.196Z,60.97
2018-03-18T21:31:45.444Z,61.13
2018-03-18T21:34:13.746Z,61.02
2018-03-18T21:36:42.008Z,61.36
2018-03-18T21:39:10.273Z,61.25
2018-03-18T21:41:38.600Z,61.67
2018-03-18T21:44:06.871Z,61.92
2018-03-18T21:46:35.167Z,61.92
2018-03-18T21:49:03.430Z,61.87
2018-03-18T21:51:32.440Z,61.66
2018-03-18T21:54:00.733Z,61.68
2018-03-18T21:56:29.183Z,61.51
2018-03-18T21:58:57.429Z,61.56
2018-03-18T22:01:25.740Z,61.55
2018-03-18T22:03:54.036Z,61.90
2018-03-18T22:06:22.360Z,61.92
2018-03-18T22:08:50.757Z,62.07
2018-03-18T22:11:19.039Z,61.91
2018-03-18T22:13:47.296Z,61.88
2018-03-18T22:16:15.588Z,61.64
2018-03-18T22:18:43.867Z,61.54
2018-03-18T22:21:12.482Z,61.68
2018-03-18T22:23:40.742Z,62.01
2018-03-18T22:26:09.345Z,62.18
2018-03-18T22:28:37.623Z,62.10
2018-03-18T22:31:05.932Z,61.99
2018-03-18T22:33:34.175Z,61.75
2018-03-18T22:36:02.459Z,61.93
2018-03-18T22:38:30.731Z,61.63
2018-03-18T22:40:59.035Z,61.31
2018-03-18T22:43:27.323Z,61.65
2018-03-18T22:45:55.606Z,61.66
2018-03-18T22:48:23.904Z,61.39
2018-03-18T22:50:52.160Z,61.86
2018-03-18T22:53:20.469Z,61.16
2018-03-18T22:55:48.756Z,61.95
2018-03-18T22:58:17.055Z,61.99
2018-03-18T23:00:45.304Z,61.91
2018-03-18T23:03:14.378Z,61.76
2018-03-18T23:05:42.644Z,61.58
2018-03-18T23:08:10.953Z,61.40
2018-03-18T23:10:39.234Z,61.37
2018-03-18T23:13:07.543Z,61.15
2018-03-18T23:15:35.816Z,61.70
2018-03-18T23:18:04.094Z,61.41
2018-03-18T23:20:32.397Z,61.43
2018-03-18T23:23:00.667Z,61.50
2018-03-18T23:25:28.935Z,61.32
2018-03-18T23:27:57.280Z,60.84
2018-03-18T23:30:25.545Z,60.68
2018-03-18T23:32:53.823Z,60.39
2018-03-18T23:35:22.178Z,60.10
2018-03-18T23:37:50.528Z,60.67
2018-03-18T23:40:18.819Z,60.87
2018-03-18T23:42:47.079Z,60.52
2018-03-18T23:45:15.375Z,59.83
2018-03-18T23:47:43.647Z,59.62
2018-03-18T23:50:11.959Z,59.56
2018-03-18T23:52:40.218Z,59.40
2018-03-18T23:55:08.512Z,59.96
2018-03-18T23:57:36.790Z,59.55
